CheckWX is a tool to help pilots better visualize weather data.  It is not intended as a substitute for an official pre-flight weather briefing.

03:07:09 UTC

CYQL METAR
Lethbridge County Airport
Lethbridge, Canada
Current

1 hour ago

CYQL 270200Z 16009KT 15SM BKN120 M01/M02 A2982 RMK AC5 SLP145
Observed
Jan-27 @ 02:00 UTC
Wind
  • 160° at 9 KTS
Visibility
15 SM
Flight Rules
VFR
Cloud Levels
  • Broken at 12,000' AGL
Temperature
-1°C / 30°F
Dewpoint
-2°C / 28°F
Humidity
93%
Altimeter
29.82" Hg
Pressure
1009.82 hPa
Previous

2 hours ago

CYQL 270100Z 16008KT 60SM BKN140 00/M02 A2982 RMK AC6 SLP140
Observed
Jan-27 @ 01:00 UTC
Wind
  • 160° at 8 KTS
Visibility
60 SM
Flight Rules
VFR
Cloud Levels
  • Broken at 14,000' AGL
Temperature
C / 32°F
Dewpoint
-2°C / 28°F
Humidity
87%
Altimeter
29.82" Hg
Pressure
1009.82 hPa
Previous

3 hours ago

CYQL 270000Z 17008KT 60SM BKN110 03/M01 A2982 RMK AC7 SLP136
Observed
Jan-27 @ 00:00 UTC
Wind
  • 170° at 8 KTS
Visibility
60 SM
Flight Rules
VFR
Cloud Levels
  • Broken at 11,000' AGL
Temperature
C / 37°F
Dewpoint
-1°C / 30°F
Humidity
75%
Altimeter
29.82" Hg
Pressure
1009.82 hPa